sensor_id;sensor_type;location;lat;lon;timestamp;P1;durP1;ratioP1;P2;durP2;ratioP2
40367;SDS011;26075;43.320;21.920;2024-03-29T00:00:52;7.57;;;1.95;;
40367;SDS011;26075;43.320;21.920;2024-03-29T00:05:53;9.98;;;2.15;;
40367;SDS011;26075;43.320;21.920;2024-03-29T00:10:54;10.52;;;2.35;;
40367;SDS011;26075;43.320;21.920;2024-03-29T00:15:55;9.43;;;3.10;;
40367;SDS011;26075;43.320;21.920;2024-03-29T00:20:56;9.98;;;2.50;;
40367;SDS011;26075;43.320;21.920;2024-03-29T00:25:57;8.45;;;2.72;;
40367;SDS011;26075;43.320;21.920;2024-03-29T00:30:58;12.15;;;2.53;;
40367;SDS011;26075;43.320;21.920;2024-03-29T00:35:59;11.32;;;2.30;;
40367;SDS011;26075;43.320;21.920;2024-03-29T00:41:00;9.07;;;1.80;;
40367;SDS011;26075;43.320;21.920;2024-03-29T00:46:01;10.52;;;2.45;;
40367;SDS011;26075;43.320;21.920;2024-03-29T00:51:02;7.85;;;2.35;;
40367;SDS011;26075;43.320;21.920;2024-03-29T00:56:04;12.10;;;2.72;;
40367;SDS011;26075;43.320;21.920;2024-03-29T01:01:05;8.52;;;1.52;;
40367;SDS011;26075;43.320;21.920;2024-03-29T01:06:06;10.88;;;1.63;;
40367;SDS011;26075;43.320;21.920;2024-03-29T01:11:07;11.18;;;1.95;;
40367;SDS011;26075;43.320;21.920;2024-03-29T01:16:08;13.25;;;2.67;;
40367;SDS011;26075;43.320;21.920;2024-03-29T01:21:09;6.53;;;2.40;;
40367;SDS011;26075;43.320;21.920;2024-03-29T01:26:10;8.70;;;2.25;;
40367;SDS011;26075;43.320;21.920;2024-03-29T01:31:12;9.07;;;2.67;;
40367;SDS011;26075;43.320;21.920;2024-03-29T01:36:13;10.52;;;2.83;;
40367;SDS011;26075;43.320;21.920;2024-03-29T01:41:14;11.25;;;2.53;;
40367;SDS011;26075;43.320;21.920;2024-03-29T01:46:17;8.85;;;2.35;;
40367;SDS011;26075;43.320;21.920;2024-03-29T01:51:20;10.13;;;3.75;;
40367;SDS011;26075;43.320;21.920;2024-03-29T01:56:22;8.80;;;3.20;;
40367;SDS011;26075;43.320;21.920;2024-03-29T02:01:24;13.75;;;3.85;;
40367;SDS011;26075;43.320;21.920;2024-03-29T02:06:28;9.60;;;3.90;;
40367;SDS011;26075;43.320;21.920;2024-03-29T02:11:29;12.73;;;4.57;;
40367;SDS011;26075;43.320;21.920;2024-03-29T02:16:30;15.80;;;5.30;;
40367;SDS011;26075;43.320;21.920;2024-03-29T02:21:31;12.77;;;4.25;;
40367;SDS011;26075;43.320;21.920;2024-03-29T02:26:34;14.52;;;7.07;;
40367;SDS011;26075;43.320;21.920;2024-03-29T02:31:41;23.48;;;14.68;;
40367;SDS011;26075;43.320;21.920;2024-03-29T02:36:42;15.25;;;7.28;;
40367;SDS011;26075;43.320;21.920;2024-03-29T02:41:43;14.88;;;6.10;;
40367;SDS011;26075;43.320;21.920;2024-03-29T02:46:44;11.80;;;5.20;;
40367;SDS011;26075;43.320;21.920;2024-03-29T02:51:45;11.75;;;5.57;;
40367;SDS011;26075;43.320;21.920;2024-03-29T02:56:46;12.93;;;5.18;;
40367;SDS011;26075;43.320;21.920;2024-03-29T03:01:47;18.50;;;5.63;;
40367;SDS011;26075;43.320;21.920;2024-03-29T03:06:48;15.48;;;7.35;;
40367;SDS011;26075;43.320;21.920;2024-03-29T03:11:49;20.45;;;7.00;;
40367;SDS011;26075;43.320;21.920;2024-03-29T03:16:51;15.23;;;7.72;;
40367;SDS011;26075;43.320;21.920;2024-03-29T03:21:52;18.92;;;8.20;;
40367;SDS011;26075;43.320;21.920;2024-03-29T03:26:53;10.73;;;5.47;;
40367;SDS011;26075;43.320;21.920;2024-03-29T03:31:54;12.65;;;4.93;;
40367;SDS011;26075;43.320;21.920;2024-03-29T03:36:55;11.18;;;4.57;;
40367;SDS011;26075;43.320;21.920;2024-03-29T03:41:56;12.48;;;4.47;;
40367;SDS011;26075;43.320;21.920;2024-03-29T03:46:57;14.70;;;5.65;;
40367;SDS011;26075;43.320;21.920;2024-03-29T03:51:58;15.75;;;6.28;;
40367;SDS011;26075;43.320;21.920;2024-03-29T03:56:59;13.05;;;5.78;;
40367;SDS011;26075;43.320;21.920;2024-03-29T04:02:00;12.73;;;4.80;;
40367;SDS011;26075;43.320;21.920;2024-03-29T04:07:01;10.52;;;3.90;;
40367;SDS011;26075;43.320;21.920;2024-03-29T04:12:02;12.70;;;5.38;;
40367;SDS011;26075;43.320;21.920;2024-03-29T04:17:03;20.00;;;7.47;;
40367;SDS011;26075;43.320;21.920;2024-03-29T04:22:04;20.02;;;7.13;;
40367;SDS011;26075;43.320;21.920;2024-03-29T04:27:05;25.15;;;7.18;;
40367;SDS011;26075;43.320;21.920;2024-03-29T04:32:06;20.58;;;7.80;;
40367;SDS011;26075;43.320;21.920;2024-03-29T04:37:07;19.27;;;6.85;;
40367;SDS011;26075;43.320;21.920;2024-03-29T04:42:08;18.15;;;5.72;;
40367;SDS011;26075;43.320;21.920;2024-03-29T04:47:09;6.00;;;1.92;;
40367;SDS011;26075;43.320;21.920;2024-03-29T04:52:10;6.32;;;2.75;;
40367;SDS011;26075;43.320;21.920;2024-03-29T04:57:13;9.27;;;3.55;;
40367;SDS011;26075;43.320;21.920;2024-03-29T05:02:14;11.15;;;4.13;;
40367;SDS011;26075;43.320;21.920;2024-03-29T05:07:15;13.73;;;5.25;;
40367;SDS011;26075;43.320;21.920;2024-03-29T05:12:16;13.32;;;5.72;;
40367;SDS011;26075;43.320;21.920;2024-03-29T05:17:17;17.10;;;5.65;;
40367;SDS011;26075;43.320;21.920;2024-03-29T05:22:20;16.38;;;5.53;;
40367;SDS011;26075;43.320;21.920;2024-03-29T05:27:22;20.13;;;5.30;;
40367;SDS011;26075;43.320;21.920;2024-03-29T05:32:23;12.60;;;5.95;;
40367;SDS011;26075;43.320;21.920;2024-03-29T05:37:24;11.52;;;3.95;;
40367;SDS011;26075;43.320;21.920;2024-03-29T05:42:26;14.98;;;5.60;;
40367;SDS011;26075;43.320;21.920;2024-03-29T05:47:27;9.13;;;4.05;;
40367;SDS011;26075;43.320;21.920;2024-03-29T05:52:28;13.90;;;4.47;;
40367;SDS011;26075;43.320;21.920;2024-03-29T05:57:29;15.82;;;5.03;;
40367;SDS011;26075;43.320;21.920;2024-03-29T06:02:31;16.70;;;5.93;;
40367;SDS011;26075;43.320;21.920;2024-03-29T06:07:32;20.77;;;6.95;;
40367;SDS011;26075;43.320;21.920;2024-03-29T06:12:33;19.73;;;6.95;;
40367;SDS011;26075;43.320;21.920;2024-03-29T06:17:38;19.60;;;7.03;;
40367;SDS011;26075;43.320;21.920;2024-03-29T06:22:39;24.42;;;6.72;;
40367;SDS011;26075;43.320;21.920;2024-03-29T06:27:40;15.55;;;7.55;;
40367;SDS011;26075;43.320;21.920;2024-03-29T06:32:43;20.67;;;7.38;;
40367;SDS011;26075;43.320;21.920;2024-03-29T06:37:45;21.95;;;7.97;;
40367;SDS011;26075;43.320;21.920;2024-03-29T06:42:46;11.65;;;4.55;;
40367;SDS011;26075;43.320;21.920;2024-03-29T06:47:47;23.10;;;6.38;;
40367;SDS011;26075;43.320;21.920;2024-03-29T06:52:48;21.80;;;6.60;;
40367;SDS011;26075;43.320;21.920;2024-03-29T06:57:49;14.70;;;4.95;;
40367;SDS011;26075;43.320;21.920;2024-03-29T07:02:50;22.10;;;7.38;;
40367;SDS011;26075;43.320;21.920;2024-03-29T07:07:51;24.63;;;7.40;;
40367;SDS011;26075;43.320;21.920;2024-03-29T07:12:53;23.38;;;5.47;;
40367;SDS011;26075;43.320;21.920;2024-03-29T07:17:54;10.98;;;4.95;;
40367;SDS011;26075;43.320;21.920;2024-03-29T07:22:56;12.15;;;4.63;;
40367;SDS011;26075;43.320;21.920;2024-03-29T07:27:57;15.98;;;4.30;;
40367;SDS011;26075;43.320;21.920;2024-03-29T07:32:58;18.17;;;4.15;;
40367;SDS011;26075;43.320;21.920;2024-03-29T07:37:59;12.90;;;3.75;;
40367;SDS011;26075;43.320;21.920;2024-03-29T07:43:01;9.63;;;2.75;;
40367;SDS011;26075;43.320;21.920;2024-03-29T07:48:03;10.10;;;3.13;;
40367;SDS011;26075;43.320;21.920;2024-03-29T07:53:04;11.85;;;3.20;;
40367;SDS011;26075;43.320;21.920;2024-03-29T07:58:05;14.73;;;3.88;;
40367;SDS011;26075;43.320;21.920;2024-03-29T08:03:08;13.60;;;3.17;;
40367;SDS011;26075;43.320;21.920;2024-03-29T08:08:09;11.93;;;3.30;;
40367;SDS011;26075;43.320;21.920;2024-03-29T08:13:10;8.73;;;2.88;;
40367;SDS011;26075;43.320;21.920;2024-03-29T08:18:14;13.95;;;2.40;;
40367;SDS011;26075;43.320;21.920;2024-03-29T08:23:15;11.93;;;2.65;;
40367;SDS011;26075;43.320;21.920;2024-03-29T08:28:16;15.20;;;3.47;;
40367;SDS011;26075;43.320;21.920;2024-03-29T08:33:17;12.43;;;2.78;;
40367;SDS011;26075;43.320;21.920;2024-03-29T08:38:18;13.90;;;2.50;;
40367;SDS011;26075;43.320;21.920;2024-03-29T08:43:19;9.45;;;2.55;;
40367;SDS011;26075;43.320;21.920;2024-03-29T08:48:20;12.32;;;2.40;;
40367;SDS011;26075;43.320;21.920;2024-03-29T08:53:21;16.88;;;2.30;;
40367;SDS011;26075;43.320;21.920;2024-03-29T08:58:22;7.93;;;1.90;;
40367;SDS011;26075;43.320;21.920;2024-03-29T09:03:24;9.68;;;2.88;;
40367;SDS011;26075;43.320;21.920;2024-03-29T09:08:25;10.07;;;1.85;;
40367;SDS011;26075;43.320;21.920;2024-03-29T09:13:26;10.13;;;2.05;;
40367;SDS011;26075;43.320;21.920;2024-03-29T09:18:27;9.07;;;1.77;;
40367;SDS011;26075;43.320;21.920;2024-03-29T09:23:28;12.38;;;2.67;;
40367;SDS011;26075;43.320;21.920;2024-03-29T09:28:29;9.38;;;2.90;;
40367;SDS011;26075;43.320;21.920;2024-03-29T09:33:31;8.43;;;2.20;;
40367;SDS011;26075;43.320;21.920;2024-03-29T09:38:32;7.78;;;1.90;;
40367;SDS011;26075;43.320;21.920;2024-03-29T09:43:33;12.05;;;2.70;;
40367;SDS011;26075;43.320;21.920;2024-03-29T09:48:35;12.05;;;2.60;;
40367;SDS011;26075;43.320;21.920;2024-03-29T09:53:37;10.38;;;2.60;;
40367;SDS011;26075;43.320;21.920;2024-03-29T09:58:38;9.02;;;1.92;;
40367;SDS011;26075;43.320;21.920;2024-03-29T10:03:40;17.45;;;2.58;;
40367;SDS011;26075;43.320;21.920;2024-03-29T10:08:41;11.00;;;2.10;;
40367;SDS011;26075;43.320;21.920;2024-03-29T10:13:42;12.52;;;2.78;;
40367;SDS011;26075;43.320;21.920;2024-03-29T10:18:47;13.43;;;2.58;;
40367;SDS011;26075;43.320;21.920;2024-03-29T10:23:48;17.33;;;2.47;;
40367;SDS011;26075;43.320;21.920;2024-03-29T10:28:49;16.27;;;2.83;;
40367;SDS011;26075;43.320;21.920;2024-03-29T10:33:51;12.10;;;2.53;;
40367;SDS011;26075;43.320;21.920;2024-03-29T10:38:54;9.80;;;2.70;;
40367;SDS011;26075;43.320;21.920;2024-03-29T10:43:55;16.40;;;3.20;;
40367;SDS011;26075;43.320;21.920;2024-03-29T10:48:57;12.93;;;3.00;;
40367;SDS011;26075;43.320;21.920;2024-03-29T10:53:58;11.63;;;2.30;;
40367;SDS011;26075;43.320;21.920;2024-03-29T10:59:44;10.82;;;2.88;;
40367;SDS011;26075;43.320;21.920;2024-03-29T11:04:26;13.77;;;2.47;;
40367;SDS011;26075;43.320;21.920;2024-03-29T11:09:29;14.05;;;3.63;;
40367;SDS011;26075;43.320;21.920;2024-03-29T11:14:42;15.43;;;3.08;;
40367;SDS011;26075;43.320;21.920;2024-03-29T11:19:43;12.63;;;3.65;;
40367;SDS011;26075;43.320;21.920;2024-03-29T11:24:44;16.10;;;4.50;;
40367;SDS011;26075;43.320;21.920;2024-03-29T11:29:45;15.30;;;4.03;;
40367;SDS011;26075;43.320;21.920;2024-03-29T11:34:50;7.68;;;1.83;;
40367;SDS011;26075;43.320;21.920;2024-03-29T11:39:51;9.75;;;2.10;;
40367;SDS011;26075;43.320;21.920;2024-03-29T11:44:55;15.88;;;2.38;;
40367;SDS011;26075;43.320;21.920;2024-03-29T11:49:56;7.00;;;1.95;;
40367;SDS011;26075;43.320;21.920;2024-03-29T11:54:59;11.25;;;1.80;;
40367;SDS011;26075;43.320;21.920;2024-03-29T12:00:00;9.18;;;2.35;;
40367;SDS011;26075;43.320;21.920;2024-03-29T12:05:05;9.43;;;2.33;;
40367;SDS011;26075;43.320;21.920;2024-03-29T12:10:08;10.38;;;1.70;;
40367;SDS011;26075;43.320;21.920;2024-03-29T12:15:10;8.50;;;2.13;;
40367;SDS011;26075;43.320;21.920;2024-03-29T12:20:10;12.30;;;2.75;;
40367;SDS011;26075;43.320;21.920;2024-03-29T12:25:16;12.45;;;3.30;;
40367;SDS011;26075;43.320;21.920;2024-03-29T12:30:17;10.23;;;2.50;;
40367;SDS011;26075;43.320;21.920;2024-03-29T12:35:21;8.32;;;2.50;;
40367;SDS011;26075;43.320;21.920;2024-03-29T12:40:23;12.02;;;2.83;;
40367;SDS011;26075;43.320;21.920;2024-03-29T12:45:24;11.27;;;2.10;;
40367;SDS011;26075;43.320;21.920;2024-03-29T12:55:28;9.88;;;1.90;;
40367;SDS011;26075;43.320;21.920;2024-03-29T13:00:35;8.20;;;2.33;;
40367;SDS011;26075;43.320;21.920;2024-03-29T13:05:37;7.78;;;1.73;;
40367;SDS011;26075;43.320;21.920;2024-03-29T13:10:42;8.80;;;2.38;;
40367;SDS011;26075;43.320;21.920;2024-03-29T13:15:43;21.95;;;4.97;;
40367;SDS011;26075;43.320;21.920;2024-03-29T13:20:47;12.00;;;3.03;;
40367;SDS011;26075;43.320;21.920;2024-03-29T13:25:48;9.63;;;2.22;;
40367;SDS011;26075;43.320;21.920;2024-03-29T13:30:49;12.15;;;3.10;;
40367;SDS011;26075;43.320;21.920;2024-03-29T13:35:52;8.23;;;2.10;;
40367;SDS011;26075;43.320;21.920;2024-03-29T13:40:55;11.45;;;2.35;;
40367;SDS011;26075;43.320;21.920;2024-03-29T13:45:57;8.68;;;2.10;;
40367;SDS011;26075;43.320;21.920;2024-03-29T13:50:59;8.82;;;2.45;;
40367;SDS011;26075;43.320;21.920;2024-03-29T13:56:03;11.30;;;2.15;;
40367;SDS011;26075;43.320;21.920;2024-03-29T14:01:06;6.07;;;1.55;;
40367;SDS011;26075;43.320;21.920;2024-03-29T14:06:07;10.43;;;1.85;;
40367;SDS011;26075;43.320;21.920;2024-03-29T14:11:08;8.00;;;2.38;;
40367;SDS011;26075;43.320;21.920;2024-03-29T14:16:11;11.40;;;3.10;;
40367;SDS011;26075;43.320;21.920;2024-03-29T14:21:13;11.30;;;2.97;;
40367;SDS011;26075;43.320;21.920;2024-03-29T14:26:14;14.18;;;2.47;;
40367;SDS011;26075;43.320;21.920;2024-03-29T14:31:15;15.80;;;1.85;;
40367;SDS011;26075;43.320;21.920;2024-03-29T14:36:17;8.65;;;1.92;;
40367;SDS011;26075;43.320;21.920;2024-03-29T14:41:18;6.93;;;1.73;;
40367;SDS011;26075;43.320;21.920;2024-03-29T14:46:21;13.20;;;3.05;;
40367;SDS011;26075;43.320;21.920;2024-03-29T14:51:22;9.38;;;2.47;;
40367;SDS011;26075;43.320;21.920;2024-03-29T14:56:23;10.55;;;2.70;;
40367;SDS011;26075;43.320;21.920;2024-03-29T15:01:25;13.40;;;3.17;;
40367;SDS011;26075;43.320;21.920;2024-03-29T15:06:26;8.70;;;2.22;;
40367;SDS011;26075;43.320;21.920;2024-03-29T15:11:27;9.63;;;3.00;;
40367;SDS011;26075;43.320;21.920;2024-03-29T15:16:28;12.25;;;2.50;;
40367;SDS011;26075;43.320;21.920;2024-03-29T15:21:30;11.60;;;2.30;;
40367;SDS011;26075;43.320;21.920;2024-03-29T15:26:31;6.57;;;1.63;;
40367;SDS011;26075;43.320;21.920;2024-03-29T15:31:33;9.48;;;2.00;;
40367;SDS011;26075;43.320;21.920;2024-03-29T15:36:35;10.00;;;2.67;;
40367;SDS011;26075;43.320;21.920;2024-03-29T15:41:37;7.50;;;1.90;;
40367;SDS011;26075;43.320;21.920;2024-03-29T15:46:39;7.32;;;1.92;;
40367;SDS011;26075;43.320;21.920;2024-03-29T15:51:40;12.50;;;2.67;;
40367;SDS011;26075;43.320;21.920;2024-03-29T15:56:41;13.18;;;2.63;;
40367;SDS011;26075;43.320;21.920;2024-03-29T16:01:42;11.60;;;3.10;;
40367;SDS011;26075;43.320;21.920;2024-03-29T16:06:43;13.57;;;3.20;;
40367;SDS011;26075;43.320;21.920;2024-03-29T16:11:44;19.02;;;4.00;;
40367;SDS011;26075;43.320;21.920;2024-03-29T16:16:45;12.15;;;2.88;;
40367;SDS011;26075;43.320;21.920;2024-03-29T16:21:46;13.77;;;3.15;;
40367;SDS011;26075;43.320;21.920;2024-03-29T16:26:47;12.30;;;3.42;;
40367;SDS011;26075;43.320;21.920;2024-03-29T16:31:48;16.70;;;4.95;;
40367;SDS011;26075;43.320;21.920;2024-03-29T16:36:49;13.77;;;4.57;;
40367;SDS011;26075;43.320;21.920;2024-03-29T16:41:50;15.98;;;5.88;;
40367;SDS011;26075;43.320;21.920;2024-03-29T16:46:53;17.48;;;7.32;;
40367;SDS011;26075;43.320;21.920;2024-03-29T16:51:54;15.75;;;6.20;;
40367;SDS011;26075;43.320;21.920;2024-03-29T16:56:55;18.00;;;6.32;;
40367;SDS011;26075;43.320;21.920;2024-03-29T17:01:56;18.48;;;5.93;;
40367;SDS011;26075;43.320;21.920;2024-03-29T17:06:57;19.42;;;6.80;;
40367;SDS011;26075;43.320;21.920;2024-03-29T17:11:58;24.58;;;9.05;;
40367;SDS011;26075;43.320;21.920;2024-03-29T17:17:01;20.40;;;8.48;;
40367;SDS011;26075;43.320;21.920;2024-03-29T17:22:05;26.23;;;8.13;;
40367;SDS011;26075;43.320;21.920;2024-03-29T17:27:06;27.98;;;7.80;;
40367;SDS011;26075;43.320;21.920;2024-03-29T17:32:07;21.08;;;5.85;;
40367;SDS011;26075;43.320;21.920;2024-03-29T17:37:08;18.85;;;5.85;;
40367;SDS011;26075;43.320;21.920;2024-03-29T17:42:09;18.27;;;7.22;;
40367;SDS011;26075;43.320;21.920;2024-03-29T17:47:10;19.95;;;8.93;;
40367;SDS011;26075;43.320;21.920;2024-03-29T17:52:11;26.15;;;11.75;;
40367;SDS011;26075;43.320;21.920;2024-03-29T17:57:12;24.77;;;13.30;;
40367;SDS011;26075;43.320;21.920;2024-03-29T18:02:13;25.88;;;13.48;;
40367;SDS011;26075;43.320;21.920;2024-03-29T18:07:14;30.08;;;14.00;;
40367;SDS011;26075;43.320;21.920;2024-03-29T18:12:15;27.95;;;12.68;;
40367;SDS011;26075;43.320;21.920;2024-03-29T18:17:16;25.17;;;12.38;;
40367;SDS011;26075;43.320;21.920;2024-03-29T18:22:17;19.05;;;12.38;;
40367;SDS011;26075;43.320;21.920;2024-03-29T18:27:18;25.17;;;12.45;;
40367;SDS011;26075;43.320;21.920;2024-03-29T18:32:19;20.85;;;12.75;;
40367;SDS011;26075;43.320;21.920;2024-03-29T18:37:20;23.85;;;12.00;;
40367;SDS011;26075;43.320;21.920;2024-03-29T18:42:21;22.02;;;12.30;;
40367;SDS011;26075;43.320;21.920;2024-03-29T18:47:22;25.33;;;14.50;;
40367;SDS011;26075;43.320;21.920;2024-03-29T18:52:24;26.25;;;13.48;;
40367;SDS011;26075;43.320;21.920;2024-03-29T18:57:25;14.23;;;4.03;;
40367;SDS011;26075;43.320;21.920;2024-03-29T19:02:26;12.88;;;4.00;;
40367;SDS011;26075;43.320;21.920;2024-03-29T19:07:27;13.50;;;5.65;;
40367;SDS011;26075;43.320;21.920;2024-03-29T19:12:28;13.25;;;5.85;;
40367;SDS011;26075;43.320;21.920;2024-03-29T19:17:29;13.93;;;6.88;;
40367;SDS011;26075;43.320;21.920;2024-03-29T19:22:30;13.80;;;7.28;;
40367;SDS011;26075;43.320;21.920;2024-03-29T19:27:31;16.83;;;7.85;;
40367;SDS011;26075;43.320;21.920;2024-03-29T19:32:32;21.38;;;7.97;;
40367;SDS011;26075;43.320;21.920;2024-03-29T19:37:34;19.23;;;8.43;;
40367;SDS011;26075;43.320;21.920;2024-03-29T19:42:36;22.50;;;9.98;;
40367;SDS011;26075;43.320;21.920;2024-03-29T19:47:37;22.95;;;10.38;;
40367;SDS011;26075;43.320;21.920;2024-03-29T19:52:38;24.38;;;11.50;;
40367;SDS011;26075;43.320;21.920;2024-03-29T19:57:39;21.75;;;11.63;;
40367;SDS011;26075;43.320;21.920;2024-03-29T20:02:40;23.63;;;12.73;;
40367;SDS011;26075;43.320;21.920;2024-03-29T20:07:41;28.83;;;14.13;;
40367;SDS011;26075;43.320;21.920;2024-03-29T20:12:42;26.30;;;13.70;;
40367;SDS011;26075;43.320;21.920;2024-03-29T20:17:43;23.27;;;13.95;;
40367;SDS011;26075;43.320;21.920;2024-03-29T20:22:44;25.67;;;14.80;;
40367;SDS011;26075;43.320;21.920;2024-03-29T20:27:47;24.02;;;15.63;;
40367;SDS011;26075;43.320;21.920;2024-03-29T20:32:48;26.98;;;16.38;;
40367;SDS011;26075;43.320;21.920;2024-03-29T20:37:49;25.90;;;15.57;;
40367;SDS011;26075;43.320;21.920;2024-03-29T20:42:51;26.00;;;15.45;;
40367;SDS011;26075;43.320;21.920;2024-03-29T20:47:52;26.85;;;16.10;;
40367;SDS011;26075;43.320;21.920;2024-03-29T20:52:54;24.85;;;15.02;;
40367;SDS011;26075;43.320;21.920;2024-03-29T20:57:56;23.92;;;13.88;;
40367;SDS011;26075;43.320;21.920;2024-03-29T21:02:57;25.02;;;13.18;;
40367;SDS011;26075;43.320;21.920;2024-03-29T21:08:16;19.00;;;11.38;;
40367;SDS011;26075;43.320;21.920;2024-03-29T21:13:17;19.20;;;10.13;;
40367;SDS011;26075;43.320;21.920;2024-03-29T21:18:18;14.77;;;9.60;;
40367;SDS011;26075;43.320;21.920;2024-03-29T21:23:19;16.75;;;8.73;;
40367;SDS011;26075;43.320;21.920;2024-03-29T21:28:20;14.82;;;7.82;;
40367;SDS011;26075;43.320;21.920;2024-03-29T21:33:21;16.02;;;8.43;;
40367;SDS011;26075;43.320;21.920;2024-03-29T21:38:23;15.43;;;8.68;;
40367;SDS011;26075;43.320;21.920;2024-03-29T21:43:24;16.50;;;8.00;;
40367;SDS011;26075;43.320;21.920;2024-03-29T21:48:26;17.02;;;8.57;;
40367;SDS011;26075;43.320;21.920;2024-03-29T21:53:27;19.92;;;8.50;;
40367;SDS011;26075;43.320;21.920;2024-03-29T21:58:28;18.33;;;8.55;;
40367;SDS011;26075;43.320;21.920;2024-03-29T22:03:29;24.58;;;10.25;;
40367;SDS011;26075;43.320;21.920;2024-03-29T22:08:30;21.92;;;10.30;;
40367;SDS011;26075;43.320;21.920;2024-03-29T22:13:31;23.67;;;9.27;;
40367;SDS011;26075;43.320;21.920;2024-03-29T22:18:32;22.42;;;10.98;;
40367;SDS011;26075;43.320;21.920;2024-03-29T22:23:33;22.88;;;9.48;;
40367;SDS011;26075;43.320;21.920;2024-03-29T22:28:34;25.20;;;12.10;;
40367;SDS011;26075;43.320;21.920;2024-03-29T22:33:35;19.85;;;10.27;;
40367;SDS011;26075;43.320;21.920;2024-03-29T22:38:37;21.85;;;10.68;;
40367;SDS011;26075;43.320;21.920;2024-03-29T22:43:38;22.52;;;10.52;;
40367;SDS011;26075;43.320;21.920;2024-03-29T22:48:39;22.35;;;10.77;;
40367;SDS011;26075;43.320;21.920;2024-03-29T22:53:40;22.58;;;10.65;;
40367;SDS011;26075;43.320;21.920;2024-03-29T22:58:42;24.05;;;10.43;;
40367;SDS011;26075;43.320;21.920;2024-03-29T23:03:43;19.95;;;9.90;;
40367;SDS011;26075;43.320;21.920;2024-03-29T23:08:44;17.50;;;7.75;;
40367;SDS011;26075;43.320;21.920;2024-03-29T23:13:45;15.85;;;6.13;;
40367;SDS011;26075;43.320;21.920;2024-03-29T23:18:46;15.80;;;6.22;;
40367;SDS011;26075;43.320;21.920;2024-03-29T23:23:47;12.30;;;5.28;;
40367;SDS011;26075;43.320;21.920;2024-03-29T23:28:48;12.48;;;6.32;;
40367;SDS011;26075;43.320;21.920;2024-03-29T23:33:49;18.83;;;10.05;;
40367;SDS011;26075;43.320;21.920;2024-03-29T23:38:50;16.77;;;8.82;;
40367;SDS011;26075;43.320;21.920;2024-03-29T23:43:51;19.35;;;9.43;;
40367;SDS011;26075;43.320;21.920;2024-03-29T23:48:52;16.73;;;6.78;;
40367;SDS011;26075;43.320;21.920;2024-03-29T23:53:53;14.23;;;8.15;;
40367;SDS011;26075;43.320;21.920;2024-03-29T23:58:57;22.90;;;12.73;;
